Terminal Aerodrome Forecast
Issued by NWS

Home | Current Version | Previous Version | Text Only | Print | Product List | Glossary On
Versions: 1 2 3 4 5 6 7 8 9 10 11 12 13 14 15 16 17 18 19 20 21 22 23 24 25 26 27 28 29 30 31 32 33
727
FTUS43 KGLD 161741
TAFMCK
TAF
KMCK 161741Z 1618/1718 04013KT P6SM FEW250
     FM170500 03010KT P6SM FEW008 SCT050
     FM170700 02010KT P6SM SCT003 BKN020
      TEMPO 1709/1713 -FZDZ SCT003 OVC008
     FM171300 36008KT P6SM SCT003 OVC010=

USA.gov is the U.S. government's official web portal to all federal, state and local government web resources and services.